Time;durP1;ratioP1;P1;durP2;ratioP2;P2;SDS_P1;SDS_P2;PMS_P1;PMS_P2;Temp;Humidity;BMP_temperature;BMP_pressure;BME280_temperature;BME280_humidity;BME280_pressure;Samples;Min_cycle;Max_cycle;Signal;HPM_P1;HPM_P2
2023/03/06 00:03:03;;;;;;;43.60;21.70;;;;;;;-1.22;83.36;97620.90;435518;1260;108026;-39
2023/03/06 00:13:17;;;;;;;39.10;19.80;;;;;;;-1.20;83.57;97619.90;434151;1261;98015;-40
2023/03/06 00:23:26;;;;;;;47.60;19.80;;;;;;;-1.26;83.58;97617.35;434114;1258;97903;-40
2023/03/06 00:33:33;;;;;;;32.80;17.40;;;;;;;-1.32;83.70;97614.98;434063;1260;110215;-40
2023/03/06 00:43:40;;;;;;;34.80;18.20;;;;;;;-1.42;83.74;97608.39;434151;1260;108399;-39
2023/03/06 00:53:48;;;;;;;33.50;19.70;;;;;;;-1.46;83.50;97604.10;434129;1261;97906;-39
2023/03/06 01:03:55;;;;;;;36.80;18.20;;;;;;;-1.37;83.37;97601.17;434133;1255;108943;-40
2023/03/06 01:14:03;;;;;;;31.50;15.40;;;;;;;-1.27;83.71;97598.73;434023;1255;108944;-40
2023/03/06 01:24:08;;;;;;;39.60;17.80;;;;;;;-1.16;83.89;97599.92;434182;1260;97796;-38
2023/03/06 01:34:15;;;;;;;31.70;18.40;;;;;;;-1.29;83.70;97593.33;434285;1261;97504;-38
2023/03/06 01:44:22;;;;;;;32.10;17.50;;;;;;;-1.40;83.74;97580.98;434142;1260;109187;-40
2023/03/06 01:54:32;;;;;;;36.20;17.80;;;;;;;-1.55;83.60;97577.48;434227;1256;97921;-40
2023/03/06 02:04:41;;;;;;;32.70;17.60;;;;;;;-1.60;83.72;97576.61;434168;1256;109913;-39
2023/03/06 02:14:49;;;;;;;32.80;17.50;;;;;;;-1.58;83.51;97575.44;434255;1260;107663;-39
2023/03/06 02:45:29;;;;;;;36.30;18.10;;;;;;;-1.89;83.65;97564.96;434338;1260;97590;-39
2023/03/06 02:55:37;;;;;;;29.00;15.20;;;;;;;-2.01;83.96;97551.16;434155;1255;97013;-39
2023/03/06 03:05:44;;;;;;;31.70;15.30;;;;;;;-2.11;83.94;97544.64;434248;1261;110176;-39
2023/03/06 03:15:59;;;;;;;32.30;16.40;;;;;;;-2.18;83.98;97542.33;434147;1255;107850;-40
2023/03/06 03:36:13;;;;;;;37.20;20.10;;;;;;;-1.87;84.25;97532.59;433939;1262;471695;-40
2023/03/06 03:46:20;;;;;;;27.40;14.40;;;;;;;-1.63;84.29;97526.11;434209;1256;97898;-40
2023/03/06 03:56:28;;;;;;;46.60;21.70;;;;;;;-1.47;84.56;97521.80;434134;1261;111169;-39
2023/03/06 04:06:34;;;;;;;38.20;19.80;;;;;;;-1.50;84.40;97523.23;434230;1256;108262;-40
2023/03/06 04:16:41;;;;;;;36.60;20.10;;;;;;;-1.57;84.41;97514.19;434171;1261;97883;-39
2023/03/06 04:26:48;;;;;;;40.70;18.10;;;;;;;-1.67;84.43;97503.78;434178;1260;97494;-40
2023/03/06 04:36:54;;;;;;;38.20;19.50;;;;;;;-1.69;84.46;97490.21;434192;1255;110846;-40
2023/03/06 04:47:02;;;;;;;36.90;22.60;;;;;;;-1.63;84.40;97479.66;434084;1255;109477;-39
2023/03/06 04:57:10;;;;;;;25.30;12.40;;;;;;;-1.54;84.73;97468.44;434203;1261;97909;-40
2023/03/06 05:07:17;;;;;;;40.20;15.10;;;;;;;-1.40;84.78;97457.23;434154;1255;107629;-39
2023/03/06 05:17:25;;;;;;;30.20;15.30;;;;;;;-1.40;84.75;97451.70;434243;1261;97467;-39
2023/03/06 05:27:32;;;;;;;41.70;18.90;;;;;;;-1.52;84.87;97447.28;434061;1262;97488;-40
2023/03/06 05:37:40;;;;;;;49.20;23.30;;;;;;;-1.67;84.79;97438.82;434113;1260;109470;-40
2023/03/06 05:47:47;;;;;;;35.10;22.40;;;;;;;-1.69;85.09;97438.02;434131;1262;108416;-40
2023/03/06 05:57:55;;;;;;;29.10;15.90;;;;;;;-1.59;85.03;97435.25;434207;1260;97884;-39
2023/03/06 06:08:02;;;;;;;24.50;12.90;;;;;;;-1.46;85.11;97429.08;434151;1262;109950;-40
2023/03/06 06:18:08;;;;;;;26.60;13.30;;;;;;;-1.39;85.32;97421.31;434080;1260;108250;-39
2023/03/06 06:28:15;;;;;;;39.60;17.20;;;;;;;-1.26;85.56;97415.21;434143;1262;97472;-40
2023/03/06 06:38:22;;;;;;;37.60;17.60;;;;;;;-1.19;85.58;97411.13;434116;1260;109820;-44
2023/03/06 06:48:30;;;;;;;30.50;17.20;;;;;;;-0.96;85.81;97406.05;434103;1259;108214;-38
2023/03/06 06:58:37;;;;;;;23.50;13.10;;;;;;;-0.64;85.42;97404.58;434055;1261;97883;-39
2023/03/06 07:08:44;;;;;;;39.60;19.30;;;;;;;-0.41;85.39;97402.55;434237;1269;109232;-39
2023/03/06 07:18:51;;;;;;;35.60;17.60;;;;;;;-0.31;85.58;97402.56;434246;1256;108838;-39
2023/03/06 07:28:58;;;;;;;33.80;18.30;;;;;;;0.01;85.69;97404.46;434078;1261;97882;-42
2023/03/06 07:39:06;;;;;;;22.40;15.20;;;;;;;0.34;85.60;97411.29;434135;1257;110499;-39
2023/03/06 07:49:12;;;;;;;21.60;15.30;;;;;;;0.60;85.49;97415.10;434247;1260;107875;-41
2023/03/06 07:59:20;;;;;;;30.10;17.70;;;;;;;0.89;85.72;97424.41;434040;1260;97489;-41
2023/03/06 08:09:27;;;;;;;39.30;21.40;;;;;;;0.95;85.94;97425.83;434205;1261;108783;-40
2023/03/06 08:19:37;;;;;;;39.30;20.90;;;;;;;1.15;85.81;97425.80;434072;1261;108032;-39
2023/03/06 08:29:45;;;;;;;23.50;16.10;;;;;;;1.45;85.63;97426.98;434053;1256;97603;-39
2023/03/06 08:39:51;;;;;;;27.20;19.00;;;;;;;1.89;85.57;97431.27;434034;1257;107924;-40
2023/03/06 08:49:59;;;;;;;30.20;16.50;;;;;;;2.16;85.38;97434.27;434140;1269;97516;-39
2023/03/06 09:00:09;;;;;;;29.80;18.70;;;;;;;2.26;85.21;97439.13;434054;1269;97507;-40
2023/03/06 09:10:17;;;;;;;;;;;;;;;2.55;85.00;97439.33;434253;1261;109600;-39
2023/03/06 09:20:24;;;;;;;21.10;13.70;;;;;;;2.97;84.48;97440.96;434265;1260;108121;-39
2023/03/06 09:30:32;;;;;;;25.00;15.80;;;;;;;3.39;84.31;97440.52;434132;1262;97830;-39
2023/03/06 09:40:39;;;;;;;29.30;18.20;;;;;;;3.61;83.46;97437.90;434083;1260;97903;-39
2023/03/06 09:50:49;;;;;;;16.50;12.30;;;;;;;3.90;83.28;97434.58;434147;1260;109945;-38
2023/03/06 10:00:59;;;;;;;27.90;15.70;;;;;;;4.09;82.01;97438.61;433962;1261;107672;-39
2023/03/06 10:11:05;;;;;;;28.20;16.20;;;;;;;4.35;82.06;97431.80;434162;1261;96648;-40
2023/03/06 10:21:18;;;;;;;19.70;12.90;;;;;;;4.66;81.59;97426.27;434169;1260;97868;-39
2023/03/06 10:31:28;;;;;;;27.70;14.40;;;;;;;4.73;80.72;97416.52;434068;1260;110760;-39
2023/03/06 10:51:55;;;;;;;15.40;8.90;;;;;;;5.18;79.11;97400.62;434146;1260;97796;-40
2023/03/06 11:02:13;;;;;;;12.50;8.30;;;;;;;5.49;79.17;97397.16;434115;1260;109525;-41
2023/03/06 11:12:26;;;;;;;24.30;13.70;;;;;;;5.57;78.16;97379.05;434059;1258;108191;-40
2023/03/06 11:22:34;;;;;;;17.40;9.50;;;;;;;5.59;77.12;97363.48;434124;1258;98381;-40
2023/03/06 11:42:53;;;;;;;13.10;8.20;;;;;;;5.59;75.93;97349.32;434175;1257;107928;-40
2023/03/06 11:53:02;;;;;;;15.90;9.50;;;;;;;5.80;74.92;97343.85;434163;1260;96717;-40
2023/03/06 12:03:29;;;;;;;13.40;7.10;;;;;;;6.04;75.16;97325.58;434183;1261;97471;-40
2023/03/06 12:13:53;;;;;;;19.50;9.80;;;;;;;5.92;73.33;97310.48;434132;1260;109532;-39
2023/03/06 12:24:07;;;;;;;10.70;6.80;;;;;;;5.95;73.67;97302.64;434841;1258;108195;-39
2023/03/06 12:34:15;;;;;;;17.30;9.00;;;;;;;5.93;73.00;97290.20;434095;1261;97900;-40
2023/03/06 12:44:38;;;;;;;12.10;7.20;;;;;;;5.85;72.78;97282.62;434320;1257;97609;-40
2023/03/06 12:54:45;;;;;;;11.70;7.20;;;;;;;5.76;72.73;97280.66;434451;1260;110059;-41
2023/03/06 13:05:01;;;;;;;12.30;7.80;;;;;;;5.68;71.92;97273.72;434190;1260;107856;-40
2023/03/06 13:15:36;;;;;;;13.30;8.40;;;;;;;5.61;71.49;97268.33;434020;1258;96662;-40
2023/03/06 13:35:53;;;;;;;16.70;9.50;;;;;;;5.20;70.25;97250.48;434005;1260;110848;-40
2023/03/06 13:46:14;;;;;;;27.70;13.40;;;;;;;5.09;70.04;97240.52;434051;1261;107532;-40
2023/03/06 13:56:30;;;;;;;17.80;9.30;;;;;;;4.92;69.80;97231.09;435788;1259;96693;-40
2023/03/06 14:16:52;;;;;;;24.70;12.50;;;;;;;4.52;70.21;97205.80;434130;1261;110377;-40
2023/03/06 14:26:59;;;;;;;16.60;9.40;;;;;;;4.42;70.25;97211.06;434275;1260;106103;-40
2023/03/06 14:37:19;;;;;;;15.90;9.90;;;;;;;4.09;69.75;97226.64;434139;1256;97866;-40
2023/03/06 14:47:25;;;;;;;;;;;;;;;3.48;69.92;97257.83;434167;1261;97610;-39
2023/03/06 14:57:33;;;;;;;34.40;20.90;;;;;;;2.82;70.82;97255.79;433983;1259;109162;-40
2023/03/06 15:07:41;;;;;;;20.90;13.30;;;;;;;2.35;72.00;97272.01;434109;1259;107325;-40
2023/03/06 15:17:48;;;;;;;15.10;7.90;;;;;;;1.99;73.00;97246.84;434126;1260;97472;-39
2023/03/06 15:27:58;;;;;;;25.90;14.20;;;;;;;1.86;73.63;97227.29;435183;1260;110048;-41
2023/03/06 15:38:20;;;;;;;;;;;;;;;1.75;74.19;97229.27;434187;1255;368189;-39
2023/03/06 15:48:28;;;;;;;47.80;21.00;;;;;;;1.72;74.77;97237.10;434081;1260;97880;-39
2023/03/06 15:58:34;;;;;;;30.00;15.60;;;;;;;1.75;74.84;97239.53;434185;1260;97896;-40
2023/03/06 16:08:41;;;;;;;23.40;13.00;;;;;;;1.81;75.26;97242.75;434105;1260;109566;-39
2023/03/06 16:18:49;;;;;;;44.60;20.60;;;;;;;1.90;75.69;97248.13;434173;1256;97893;-40
2023/03/06 16:28:56;;;;;;;70.10;30.10;;;;;;;1.86;76.03;97254.91;434081;1259;111509;-40
2023/03/06 16:39:04;;;;;;;52.00;24.10;;;;;;;1.77;76.18;97255.44;434142;1260;107666;-39
2023/03/06 16:49:12;;;;;;;44.80;20.90;;;;;;;1.54;76.48;97258.33;434082;1260;97915;-41
2023/03/06 16:59:19;;;;;;;22.20;13.80;;;;;;;1.44;76.79;97256.21;434096;1255;97361;-40
2023/03/06 17:09:27;;;;;;;25.50;15.20;;;;;;;1.44;76.99;97252.08;434111;1260;109520;-41
2023/03/06 17:19:34;;;;;;;28.70;17.50;;;;;;;1.47;77.39;97252.15;434117;1255;97494;-39
2023/03/06 17:29:41;;;;;;;53.40;26.30;;;;;;;1.41;77.74;97251.60;434134;1257;110406;-40
2023/03/06 17:49:55;;;;;;;56.30;29.70;;;;;;;0.94;78.30;97244.05;434069;1256;98873;-44
2023/03/06 18:00:04;;;;;;;51.70;27.60;;;;;;;0.77;78.24;97254.44;434135;1260;109780;-40
2023/03/06 18:10:12;;;;;;;44.10;24.00;;;;;;;0.74;78.77;97256.13;434041;1260;106617;-39
2023/03/06 18:30:25;;;;;;;36.70;18.60;;;;;;;0.85;79.19;97252.27;434110;1259;111305;-39
2023/03/06 18:40:33;;;;;;;51.10;24.40;;;;;;;0.84;79.50;97255.42;434181;1258;120295;-40
2023/03/06 18:50:41;;;;;;;51.90;24.30;;;;;;;0.80;79.70;97261.84;434087;1257;97823;-40
2023/03/06 19:00:45;;;;;;;38.10;19.60;;;;;;;0.72;79.80;97260.96;434174;1260;109912;-40
2023/03/06 19:10:52;;;;;;;37.90;18.40;;;;;;;0.71;79.90;97255.91;434186;1259;97478;-39
2023/03/06 19:21:06;;;;;;;44.30;20.40;;;;;;;0.69;79.87;97247.66;434148;1258;97504;-39
2023/03/06 19:31:13;;;;;;;51.90;23.30;;;;;;;0.64;80.17;97242.90;434070;1256;111101;-40
2023/03/06 19:41:22;;;;;;;80.60;36.10;;;;;;;0.58;80.16;97242.94;434075;1255;107732;-40
2023/03/06 19:51:29;;;;;;;42.10;24.30;;;;;;;0.50;80.32;97240.63;434783;1260;97889;-41
2023/03/06 20:01:37;;;;;;;61.50;28.70;;;;;;;0.44;80.53;97239.27;434189;1256;107664;-40
2023/03/06 20:11:45;;;;;;;60.20;28.50;;;;;;;0.32;80.76;97244.48;434181;1257;97934;-40
2023/03/06 20:21:51;;;;;;;64.80;29.00;;;;;;;0.21;80.85;97251.45;435530;1255;97899;-39
2023/03/06 20:31:59;;;;;;;42.40;21.60;;;;;;;0.16;80.93;97254.05;437734;1259;110298;-39
2023/03/06 20:42:04;;;;;;;32.20;15.80;;;;;;;0.20;80.96;97252.98;437701;1260;107860;-39
2023/03/06 20:52:11;;;;;;;44.90;18.00;;;;;;;0.30;81.08;97254.30;437914;1261;97909;-39
2023/03/06 21:02:19;;;;;;;29.30;16.00;;;;;;;0.43;81.26;97253.33;437706;1259;110064;-38
2023/03/06 21:12:26;;;;;;;47.00;22.30;;;;;;;0.49;81.32;97245.95;437980;1260;108432;-39
2023/03/06 21:22:32;;;;;;;40.80;22.00;;;;;;;0.47;81.49;97247.06;437796;1260;108099;-39
2023/03/06 21:32:40;;;;;;;44.40;22.60;;;;;;;0.38;81.40;97246.80;437818;1256;98056;-39
2023/03/06 21:42:46;;;;;;;31.70;18.10;;;;;;;0.34;81.30;97243.05;438358;1260;96570;-40
2023/03/06 21:52:55;;;;;;;41.30;21.80;;;;;;;0.35;81.31;97246.53;437817;1256;110349;-40
2023/03/06 22:03:03;;;;;;;45.30;22.10;;;;;;;0.40;81.46;97251.09;438252;1259;106763;-41
2023/03/06 22:13:10;;;;;;;37.50;19.60;;;;;;;0.41;81.38;97245.97;438095;1256;96663;-39
2023/03/06 22:23:18;;;;;;;64.90;27.70;;;;;;;0.37;81.64;97240.48;438061;1260;112573;-40
2023/03/06 22:33:25;;;;;;;67.20;32.00;;;;;;;0.27;81.70;97243.41;438184;1260;107600;-40
2023/03/06 22:43:33;;;;;;;67.10;29.50;;;;;;;0.15;81.60;97241.19;437785;1259;108237;-40
2023/03/06 22:53:41;;;;;;;50.70;24.10;;;;;;;0.07;81.72;97240.97;438424;1256;96583;-40
2023/03/06 23:03:49;;;;;;;43.70;23.50;;;;;;;0.12;81.65;97243.48;437510;1260;109909;-40
2023/03/06 23:13:58;;;;;;;40.60;21.50;;;;;;;0.21;81.67;97247.41;436589;1261;107638;-40
2023/03/06 23:34:12;;;;;;;53.20;26.50;;;;;;;0.17;81.90;97243.38;434171;1260;97535;-39
2023/03/06 23:44:20;;;;;;;65.50;28.00;;;;;;;0.03;81.94;97241.72;434131;1261;109244;-39
2023/03/06 23:54:27;;;;;;;52.70;27.70;;;;;;;-0.11;81.99;97245.88;434326;1259;108236;-39
